Time;durP1;ratioP1;P1;durP2;ratioP2;P2;SDS_P1;SDS_P2;PMS_P1;PMS_P2;Temp;Humidity;BMP_temperature;BMP_pressure;BME280_temperature;BME280_humidity;BME280_pressure;Samples;Min_cycle;Max_cycle;Signal;HPM_P1;HPM_P2
2024/01/20 00:01:57;;;;;;;36.78;17.27;;;;;;;;;;5055482;28;20077;-83
2024/01/20 00:04:23;;;;;;;28.98;13.63;;;;;;;;;;5054934;28;20139;-79
2024/01/20 00:06:49;;;;;;;28.95;14.95;;;;;;;;;;5055770;28;20147;-81
2024/01/20 00:09:16;;;;;;;39.03;19.10;;;;;;;;;;5055179;28;20056;-82
2024/01/20 00:11:42;;;;;;;32.05;16.77;;;;;;;;;;5038485;28;20080;-82
2024/01/20 00:14:08;;;;;;;36.03;17.40;;;;;;;;;;5055350;28;20048;-81
2024/01/20 00:16:34;;;;;;;36.45;17.08;;;;;;;;;;5057175;28;20048;-80
2024/01/20 00:19:00;;;;;;;36.83;16.65;;;;;;;;;;5042271;28;20382;-79
2024/01/20 00:21:26;;;;;;;34.20;17.05;;;;;;;;;;5025757;28;20044;-80
2024/01/20 00:23:52;;;;;;;31.83;16.88;;;;;;;;;;5056501;28;20048;-84
2024/01/20 00:26:18;;;;;;;40.13;17.05;;;;;;;;;;5055379;28;20068;-81
2024/01/20 00:28:44;;;;;;;39.58;17.65;;;;;;;;;;5037272;28;20049;-79
2024/01/20 00:31:11;;;;;;;35.90;17.48;;;;;;;;;;5055535;28;20084;-82
2024/01/20 00:33:37;;;;;;;32.30;16.70;;;;;;;;;;5054676;28;20485;-83
2024/01/20 00:36:04;;;;;;;37.38;18.67;;;;;;;;;;5038070;28;20123;-82
2024/01/20 00:38:30;;;;;;;39.20;18.73;;;;;;;;;;5037459;28;20382;-83
2024/01/20 00:40:57;;;;;;;33.88;17.20;;;;;;;;;;5056733;28;20049;-81
2024/01/20 00:43:23;;;;;;;37.13;18.52;;;;;;;;;;5042327;28;20110;-80
2024/01/20 00:45:49;;;;;;;40.00;18.55;;;;;;;;;;5046812;28;20049;-82
2024/01/20 00:48:15;;;;;;;42.05;19.52;;;;;;;;;;5065489;28;20040;-82
2024/01/20 00:50:41;;;;;;;33.40;16.27;;;;;;;;;;5042255;28;20136;-78
2024/01/20 00:53:07;;;;;;;40.58;19.08;;;;;;;;;;5057288;28;20048;-80
2024/01/20 00:55:33;;;;;;;40.38;18.88;;;;;;;;;;5038673;28;20067;-83
2024/01/20 00:57:59;;;;;;;37.53;16.63;;;;;;;;;;5023292;28;20117;-84
2024/01/20 01:00:25;;;;;;;34.50;16.40;;;;;;;;;;5037885;28;20045;-83
2024/01/20 01:02:51;;;;;;;41.40;20.35;;;;;;;;;;5038373;28;20152;-85
2024/01/20 01:05:17;;;;;;;32.03;16.45;;;;;;;;;;5055546;28;20049;-84
2024/01/20 01:07:44;;;;;;;29.60;14.07;;;;;;;;;;5037566;28;20056;-80
2024/01/20 01:10:10;;;;;;;37.60;17.95;;;;;;;;;;5021193;28;20489;-81
2024/01/20 01:12:36;;;;;;;37.88;17.92;;;;;;;;;;5037132;28;20450;-85
2024/01/20 01:15:03;;;;;;;35.40;17.20;;;;;;;;;;5055298;28;20045;-80
2024/01/20 01:17:30;;;;;;;34.50;16.52;;;;;;;;;;5038012;28;20075;-80
2024/01/20 01:19:56;;;;;;;35.10;18.48;;;;;;;;;;5056030;28;20045;-82
2024/01/20 01:22:23;;;;;;;35.65;17.55;;;;;;;;;;5037952;28;20404;-79
2024/01/20 01:24:49;;;;;;;40.92;18.70;;;;;;;;;;5056543;28;20041;-81
2024/01/20 01:27:15;;;;;;;37.83;19.75;;;;;;;;;;5038263;28;20499;-84
2024/01/20 01:29:41;;;;;;;41.10;18.27;;;;;;;;;;5038354;28;20060;-84
2024/01/20 01:32:07;;;;;;;35.40;17.15;;;;;;;;;;5056828;28;20051;-84
2024/01/20 01:34:33;;;;;;;41.45;18.63;;;;;;;;;;5038791;28;20045;-80
2024/01/20 01:36:59;;;;;;;38.53;19.08;;;;;;;;;;5058643;28;20045;-84
2024/01/20 01:39:25;;;;;;;39.10;19.63;;;;;;;;;;5058185;28;20045;-80
2024/01/20 01:41:51;;;;;;;39.33;18.45;;;;;;;;;;5041824;28;20140;-83
2024/01/20 01:44:17;;;;;;;44.20;19.42;;;;;;;;;;5023884;28;20041;-83
2024/01/20 01:46:43;;;;;;;40.10;19.13;;;;;;;;;;5058922;28;20512;-81
2024/01/20 01:49:10;;;;;;;40.67;20.13;;;;;;;;;;5045399;28;20127;-83
2024/01/20 01:51:37;;;;;;;40.15;20.75;;;;;;;;;;5063569;28;20048;-82
2024/01/20 01:54:03;;;;;;;36.05;18.67;;;;;;;;;;5034796;28;20102;-78
2024/01/20 01:56:32;;;;;;;45.55;20.50;;;;;;;;;;5035815;28;20076;-82
2024/01/20 01:58:58;;;;;;;46.90;21.77;;;;;;;;;;5048882;28;20052;-84
2024/01/20 02:01:25;;;;;;;35.75;17.48;;;;;;;;;;5062293;28;20048;-80
2024/01/20 02:03:51;;;;;;;44.92;21.48;;;;;;;;;;5040447;28;20566;-85
2024/01/20 02:06:17;;;;;;;46.78;20.90;;;;;;;;;;5058377;28;20049;-83
2024/01/20 02:08:43;;;;;;;50.63;21.95;;;;;;;;;;5022684;28;20089;-82
2024/01/20 02:11:09;;;;;;;44.63;22.40;;;;;;;;;;5040233;28;20472;-80
2024/01/20 02:13:36;;;;;;;52.85;24.02;;;;;;;;;;5058264;28;20128;-84
2024/01/20 02:16:02;;;;;;;47.42;24.67;;;;;;;;;;5060921;28;20049;-82
2024/01/20 02:18:29;;;;;;;50.55;23.85;;;;;;;;;;5057613;28;20040;-80
2024/01/20 02:20:55;;;;;;;49.40;22.70;;;;;;;;;;5059971;28;20045;-83
2024/01/20 02:23:21;;;;;;;46.43;21.27;;;;;;;;;;5056119;28;20508;-81
2024/01/20 02:25:48;;;;;;;42.80;21.30;;;;;;;;;;5055446;28;20048;-82
2024/01/20 02:28:14;;;;;;;47.47;20.50;;;;;;;;;;5038297;28;20080;-81
2024/01/20 02:30:45;;;;;;;45.55;22.15;;;;;;;;;;5019842;28;20085;-83
2024/01/20 02:33:13;;;;;;;44.83;21.25;;;;;;;;;;5037941;28;20059;-80
2024/01/20 02:35:39;;;;;;;46.50;22.13;;;;;;;;;;5039054;28;20069;-82
2024/01/20 02:38:05;;;;;;;53.30;28.30;;;;;;;;;;5057128;28;20048;-80
2024/01/20 02:40:31;;;;;;;45.22;22.00;;;;;;;;;;5041661;28;20558;-82
2024/01/20 02:42:57;;;;;;;52.00;24.98;;;;;;;;;;5042963;28;20080;-81
2024/01/20 02:45:23;;;;;;;44.08;22.50;;;;;;;;;;5024119;28;20137;-83
2024/01/20 02:47:51;;;;;;;49.33;23.33;;;;;;;;;;5055384;28;20045;-85
2024/01/20 02:50:17;;;;;;;47.20;22.02;;;;;;;;;;5023486;28;20060;-84
2024/01/20 02:52:43;;;;;;;48.97;23.10;;;;;;;;;;5038749;28;20393;-83
2024/01/20 02:55:09;;;;;;;47.25;22.48;;;;;;;;;;5058187;28;20047;-84
2024/01/20 02:57:35;;;;;;;42.10;19.77;;;;;;;;;;5024363;28;20052;-75
2024/01/20 03:00:01;;;;;;;56.03;25.50;;;;;;;;;;5041249;28;20463;-80
2024/01/20 03:02:27;;;;;;;53.97;24.63;;;;;;;;;;5023340;28;20476;-83
2024/01/20 03:04:53;;;;;;;58.78;29.95;;;;;;;;;;5058643;28;20056;-85
2024/01/20 03:07:19;;;;;;;55.28;24.42;;;;;;;;;;5059681;28;20048;-82
2024/01/20 03:09:46;;;;;;;52.80;21.55;;;;;;;;;;5051624;28;20049;-81
2024/01/20 03:12:12;;;;;;;57.15;25.67;;;;;;;;;;5060211;28;20400;-82
2024/01/20 03:14:39;;;;;;;50.20;23.20;;;;;;;;;;5044804;28;20039;-76
2024/01/20 03:17:05;;;;;;;48.22;22.95;;;;;;;;;;5063790;28;20136;-79
2024/01/20 03:19:31;;;;;;;50.58;23.27;;;;;;;;;;5046642;28;20103;-81
2024/01/20 03:21:58;;;;;;;44.78;19.92;;;;;;;;;;5045653;28;20473;-80
2024/01/20 03:24:24;;;;;;;44.88;20.08;;;;;;;;;;5061795;28;20041;-82
2024/01/20 03:26:51;;;;;;;59.45;26.52;;;;;;;;;;5065135;28;20511;-84
2024/01/20 03:29:17;;;;;;;53.15;23.73;;;;;;;;;;5053745;28;20079;-80
2024/01/20 03:31:43;;;;;;;44.80;20.27;;;;;;;;;;5068373;28;20155;-83
2024/01/20 03:34:09;;;;;;;49.42;21.85;;;;;;;;;;5068303;28;20100;-81
2024/01/20 03:36:35;;;;;;;50.35;21.45;;;;;;;;;;5054799;28;20045;-83
2024/01/20 03:39:01;;;;;;;55.53;22.90;;;;;;;;;;5071968;28;20048;-79
2024/01/20 03:41:28;;;;;;;58.55;23.25;;;;;;;;;;5071660;28;20068;-83
2024/01/20 03:43:55;;;;;;;48.97;22.00;;;;;;;;;;5033872;28;20045;-81
2024/01/20 03:46:23;;;;;;;51.30;21.48;;;;;;;;;;5069211;28;20068;-81
2024/01/20 03:48:49;;;;;;;51.85;20.70;;;;;;;;;;5049789;28;20045;-81
2024/01/20 03:51:15;;;;;;;52.85;20.02;;;;;;;;;;5047647;28;20084;-81
2024/01/20 03:53:41;;;;;;;55.22;22.33;;;;;;;;;;5052197;28;20045;-79
2024/01/20 03:56:07;;;;;;;58.25;23.67;;;;;;;;;;5070829;28;20049;-81
2024/01/20 03:58:33;;;;;;;57.20;22.70;;;;;;;;;;5050610;28;20052;-80
2024/01/20 04:01:00;;;;;;;48.80;17.25;;;;;;;;;;5068355;28;20472;-81
2024/01/20 04:03:26;;;;;;;52.65;21.02;;;;;;;;;;5069515;28;20084;-79
2024/01/20 04:05:52;;;;;;;51.47;18.92;;;;;;;;;;5045800;28;20048;-80
2024/01/20 04:08:18;;;;;;;59.55;22.70;;;;;;;;;;5051436;28;20063;-80
2024/01/20 04:10:44;;;;;;;58.63;23.83;;;;;;;;;;5034072;28;20060;-82
2024/01/20 04:13:10;;;;;;;51.92;19.67;;;;;;;;;;5045537;28;20119;-78
2024/01/20 04:15:36;;;;;;;57.75;24.33;;;;;;;;;;5063660;28;20049;-78
2024/01/20 04:18:02;;;;;;;53.35;20.42;;;;;;;;;;5064531;28;20440;-79
2024/01/20 04:20:29;;;;;;;57.45;22.88;;;;;;;;;;5066713;28;20041;-80
2024/01/20 04:22:55;;;;;;;65.72;24.63;;;;;;;;;;5047489;28;20049;-80
2024/01/20 04:25:21;;;;;;;62.10;21.50;;;;;;;;;;5066116;28;20052;-81
2024/01/20 04:27:47;;;;;;;49.85;18.80;;;;;;;;;;5067807;28;20041;-82
2024/01/20 04:30:14;;;;;;;49.80;17.63;;;;;;;;;;5050808;28;20061;-81
2024/01/20 04:32:40;;;;;;;60.20;22.90;;;;;;;;;;5066876;28;20073;-81
2024/01/20 04:35:07;;;;;;;58.92;21.15;;;;;;;;;;5067181;28;20053;-79
2024/01/20 04:37:33;;;;;;;61.30;20.90;;;;;;;;;;5069528;28;20057;-80
2024/01/20 04:40:00;;;;;;;59.45;21.00;;;;;;;;;;5067565;28;20041;-80
2024/01/20 04:42:26;;;;;;;63.75;24.67;;;;;;;;;;5066938;28;20056;-78
2024/01/20 04:44:52;;;;;;;57.47;20.73;;;;;;;;;;5065197;28;20041;-80
2024/01/20 04:47:18;;;;;;;61.85;19.75;;;;;;;;;;5049465;28;20103;-80
2024/01/20 04:49:44;;;;;;;61.97;21.55;;;;;;;;;;5067011;28;20045;-80
2024/01/20 04:52:11;;;;;;;60.88;22.10;;;;;;;;;;5048811;28;20215;-78
2024/01/20 04:54:37;;;;;;;61.78;20.05;;;;;;;;;;5069211;28;20132;-78
2024/01/20 04:57:03;;;;;;;55.78;18.65;;;;;;;;;;5067609;28;20100;-80
2024/01/20 04:59:29;;;;;;;67.38;23.00;;;;;;;;;;5068512;28;20140;-80
2024/01/20 05:01:55;;;;;;;60.35;20.63;;;;;;;;;;5068269;28;20133;-80
2024/01/20 05:04:21;;;;;;;56.97;21.67;;;;;;;;;;5063086;28;20056;-78
2024/01/20 05:06:48;;;;;;;56.55;20.38;;;;;;;;;;5044216;28;20102;-79
2024/01/20 05:09:14;;;;;;;71.05;20.88;;;;;;;;;;5057611;28;20509;-78
2024/01/20 05:11:40;;;;;;;61.50;20.38;;;;;;;;;;5042536;28;20413;-79
2024/01/20 05:14:07;;;;;;;62.58;20.88;;;;;;;;;;5027111;28;20109;-80
2024/01/20 05:16:33;;;;;;;63.73;21.30;;;;;;;;;;5044022;28;20045;-79
2024/01/20 05:18:59;;;;;;;57.33;19.77;;;;;;;;;;5030516;28;20386;-81
2024/01/20 05:21:25;;;;;;;56.40;19.50;;;;;;;;;;5047548;28;20056;-78
2024/01/20 05:23:51;;;;;;;65.78;21.35;;;;;;;;;;5063594;28;20049;-80
2024/01/20 05:26:18;;;;;;;53.03;17.65;;;;;;;;;;5043505;28;20049;-80
2024/01/20 05:28:44;;;;;;;64.85;21.33;;;;;;;;;;5039615;28;20408;-80
2024/01/20 05:31:10;;;;;;;68.50;22.42;;;;;;;;;;5054714;28;20064;-80
2024/01/20 05:33:37;;;;;;;64.28;21.55;;;;;;;;;;5037487;28;20088;-79
2024/01/20 05:36:03;;;;;;;62.70;21.50;;;;;;;;;;5055956;28;20452;-78
2024/01/20 05:38:29;;;;;;;63.17;18.52;;;;;;;;;;5055666;28;20045;-80
2024/01/20 05:40:56;;;;;;;64.25;19.50;;;;;;;;;;5058099;28;20045;-78
2024/01/20 05:43:22;;;;;;;65.70;23.63;;;;;;;;;;5054985;28;20132;-81
2024/01/20 05:45:48;;;;;;;75.43;20.23;;;;;;;;;;5041219;28;20457;-80
2024/01/20 05:48:14;;;;;;;59.95;20.27;;;;;;;;;;5059906;28;20045;-79
2024/01/20 05:50:41;;;;;;;62.50;22.10;;;;;;;;;;5039308;28;20049;-80
2024/01/20 05:53:07;;;;;;;60.63;19.90;;;;;;;;;;5055213;28;20501;-82
2024/01/20 05:55:34;;;;;;;60.55;19.58;;;;;;;;;;5055763;28;20516;-79
2024/01/20 05:58:00;;;;;;;72.35;24.83;;;;;;;;;;5038346;28;20553;-80
2024/01/20 06:00:26;;;;;;;62.95;19.92;;;;;;;;;;5038453;28;20152;-81
2024/01/20 06:02:52;;;;;;;60.33;21.05;;;;;;;;;;5055023;28;20040;-80
2024/01/20 06:05:18;;;;;;;61.90;21.52;;;;;;;;;;5054117;28;20465;-81
2024/01/20 06:07:44;;;;;;;60.03;18.92;;;;;;;;;;5054547;28;20071;-80
2024/01/20 06:10:10;;;;;;;72.75;21.67;;;;;;;;;;5036737;28;20056;-82
2024/01/20 06:12:36;;;;;;;64.78;20.40;;;;;;;;;;5019632;28;20091;-80
2024/01/20 06:15:03;;;;;;;59.50;19.63;;;;;;;;;;5053163;28;20444;-78
2024/01/20 06:17:29;;;;;;;60.63;19.45;;;;;;;;;;5053387;28;20075;-80
2024/01/20 06:19:55;;;;;;;61.95;20.05;;;;;;;;;;5020067;28;20099;-78
2024/01/20 06:22:21;;;;;;;62.83;20.48;;;;;;;;;;5055502;28;20440;-81
2024/01/20 06:24:47;;;;;;;68.00;22.40;;;;;;;;;;5053865;28;20040;-81
2024/01/20 06:27:13;;;;;;;56.47;19.25;;;;;;;;;;5035460;28;20087;-80
2024/01/20 06:29:42;;;;;;;56.40;17.95;;;;;;;;;;5034761;28;20057;-81
2024/01/20 06:32:08;;;;;;;55.25;17.73;;;;;;;;;;5051988;28;20059;-80
2024/01/20 06:34:34;;;;;;;50.67;17.52;;;;;;;;;;5053081;28;20052;-79
2024/01/20 06:37:01;;;;;;;58.60;19.05;;;;;;;;;;5019540;28;20072;-81
2024/01/20 06:39:27;;;;;;;59.53;19.08;;;;;;;;;;5034928;28;20512;-78
2024/01/20 06:41:53;;;;;;;49.22;16.63;;;;;;;;;;5035713;28;20155;-82
2024/01/20 06:44:21;;;;;;;52.13;16.60;;;;;;;;;;5052788;28;20505;-82
2024/01/20 06:46:48;;;;;;;57.85;19.02;;;;;;;;;;5036938;28;20045;-82
2024/01/20 06:49:14;;;;;;;54.92;17.08;;;;;;;;;;5056339;28;20045;-80
2024/01/20 06:51:44;;;;;;;52.65;18.17;;;;;;;;;;5059421;28;20048;-81
2024/01/20 06:54:10;;;;;;;52.80;17.27;;;;;;;;;;5042141;28;20115;-81
2024/01/20 06:56:36;;;;;;;45.20;17.23;;;;;;;;;;5045554;28;20060;-81
2024/01/20 06:59:03;;;;;;;53.63;16.77;;;;;;;;;;5029640;28;20073;-80
2024/01/20 07:01:29;;;;;;;57.17;17.80;;;;;;;;;;5028409;28;20583;-81
2024/01/20 07:03:55;;;;;;;57.63;18.13;;;;;;;;;;5044218;28;20045;-82
2024/01/20 07:06:24;;;;;;;63.13;18.13;;;;;;;;;;5046039;28;20560;-82
2024/01/20 07:08:51;;;;;;;53.67;16.33;;;;;;;;;;5045373;28;20055;-82
2024/01/20 07:11:17;;;;;;;60.58;17.67;;;;;;;;;;5045698;28;20072;-81
2024/01/20 07:13:43;;;;;;;55.08;16.50;;;;;;;;;;5047973;28;20036;-79
2024/01/20 07:16:09;;;;;;;54.97;17.98;;;;;;;;;;5046826;28;20121;-80
2024/01/20 07:18:35;;;;;;;45.15;14.73;;;;;;;;;;5062748;28;20076;-81
2024/01/20 07:21:01;;;;;;;56.95;16.83;;;;;;;;;;5046373;28;20128;-81
2024/01/20 07:23:27;;;;;;;58.45;17.77;;;;;;;;;;5062132;28;20128;-81
2024/01/20 07:25:53;;;;;;;52.67;17.77;;;;;;;;;;5064851;28;20397;-79
2024/01/20 07:28:19;;;;;;;59.58;18.00;;;;;;;;;;5042457;28;20041;-81
2024/01/20 07:30:46;;;;;;;64.60;20.17;;;;;;;;;;5017371;28;20061;-82
2024/01/20 07:33:12;;;;;;;59.20;18.40;;;;;;;;;;5044172;28;20041;-80
2024/01/20 07:35:38;;;;;;;57.30;18.23;;;;;;;;;;5062307;28;20051;-80
2024/01/20 07:38:04;;;;;;;62.97;17.27;;;;;;;;;;5047975;28;20096;-79
2024/01/20 07:40:30;;;;;;;59.47;17.77;;;;;;;;;;5046643;28;20148;-80
2024/01/20 07:42:56;;;;;;;63.97;21.45;;;;;;;;;;5047614;28;20080;-82
2024/01/20 07:45:22;;;;;;;65.28;18.67;;;;;;;;;;5048441;28;20080;-82
2024/01/20 07:47:49;;;;;;;55.42;17.27;;;;;;;;;;5060014;28;20156;-81
2024/01/20 07:50:15;;;;;;;48.67;15.32;;;;;;;;;;5026049;28;20051;-80
2024/01/20 07:52:41;;;;;;;52.10;16.73;;;;;;;;;;5041657;28;20497;-82
2024/01/20 07:55:07;;;;;;;50.50;16.88;;;;;;;;;;5025155;28;20045;-81
2024/01/20 07:57:33;;;;;;;57.80;17.80;;;;;;;;;;5057730;28;20064;-80
2024/01/20 07:59:59;;;;;;;55.60;17.20;;;;;;;;;;5057793;28;20071;-81
2024/01/20 08:02:25;;;;;;;54.45;17.15;;;;;;;;;;5058725;28;20386;-80
2024/01/20 08:04:51;;;;;;;57.75;18.77;;;;;;;;;;5022640;28;20045;-81
2024/01/20 08:07:18;;;;;;;54.22;18.05;;;;;;;;;;5042017;28;20563;-82
2024/01/20 08:09:44;;;;;;;56.42;17.92;;;;;;;;;;5060762;28;20055;-84
2024/01/20 08:12:10;;;;;;;55.42;18.13;;;;;;;;;;5041264;28;20052;-79
2024/01/20 08:14:36;;;;;;;54.53;15.93;;;;;;;;;;5062312;28;20087;-82
2024/01/20 08:17:03;;;;;;;61.10;19.83;;;;;;;;;;5046100;28;20049;-83
2024/01/20 08:19:29;;;;;;;49.72;15.02;;;;;;;;;;5026723;28;20135;-82
2024/01/20 08:21:55;;;;;;;41.10;13.48;;;;;;;;;;5044425;28;20044;-79
2024/01/20 08:24:21;;;;;;;57.58;18.85;;;;;;;;;;5063980;28;20067;-79
2024/01/20 08:26:47;;;;;;;60.63;17.65;;;;;;;;;;5050671;28;20142;-81
2024/01/20 08:29:14;;;;;;;45.60;15.77;;;;;;;;;;5050984;28;20048;-79
2024/01/20 08:31:40;;;;;;;49.47;16.65;;;;;;;;;;5037888;28;20111;-80
2024/01/20 08:34:06;;;;;;;54.33;17.75;;;;;;;;;;5054388;28;20053;-81
2024/01/20 08:36:32;;;;;;;52.25;18.65;;;;;;;;;;5035006;28;20063;-82
2024/01/20 08:38:58;;;;;;;52.22;17.52;;;;;;;;;;5066812;28;20037;-81
2024/01/20 08:41:27;;;;;;;49.03;16.20;;;;;;;;;;5060502;28;20045;-80
2024/01/20 08:43:53;;;;;;;53.17;18.70;;;;;;;;;;5024619;28;20058;-81
2024/01/20 08:46:19;;;;;;;48.50;16.27;;;;;;;;;;5040567;28;20067;-78
2024/01/20 08:48:45;;;;;;;50.83;16.17;;;;;;;;;;5040064;28;20140;-80
2024/01/20 08:51:11;;;;;;;48.33;15.55;;;;;;;;;;5059769;28;20511;-80
2024/01/20 08:53:39;;;;;;;42.88;14.90;;;;;;;;;;5039113;28;20536;-80
2024/01/20 08:56:05;;;;;;;50.03;17.52;;;;;;;;;;5056150;28;20152;-79
2024/01/20 08:58:31;;;;;;;32.88;10.73;;;;;;;;;;5057419;28;20556;-81
2024/01/20 09:00:57;;;;;;;41.95;14.32;;;;;;;;;;5023574;28;20055;-83
2024/01/20 09:03:24;;;;;;;45.95;15.40;;;;;;;;;;5056511;28;20051;-81
2024/01/20 09:05:50;;;;;;;40.40;14.15;;;;;;;;;;5057436;28;20060;-82
2024/01/20 09:08:16;;;;;;;40.88;13.98;;;;;;;;;;5043179;28;20045;-81
2024/01/20 09:10:42;;;;;;;44.00;14.50;;;;;;;;;;5041375;28;20132;-82
2024/01/20 09:13:08;;;;;;;45.17;15.50;;;;;;;;;;5055913;28;20103;-80
2024/01/20 09:15:35;;;;;;;42.58;14.73;;;;;;;;;;5055170;28;20501;-79
2024/01/20 09:18:01;;;;;;;38.17;12.35;;;;;;;;;;5037777;28;20071;-78
2024/01/20 09:20:27;;;;;;;41.45;15.23;;;;;;;;;;5036790;28;20041;-82
2024/01/20 09:22:53;;;;;;;40.53;15.02;;;;;;;;;;5037340;28;20063;-80
2024/01/20 09:25:19;;;;;;;36.88;12.85;;;;;;;;;;5037268;28;20045;-81
2024/01/20 09:27:45;;;;;;;34.30;12.60;;;;;;;;;;5060719;28;20049;-78
2024/01/20 09:30:11;;;;;;;43.00;13.65;;;;;;;;;;5044702;28;20053;-80
2024/01/20 09:32:38;;;;;;;38.85;12.80;;;;;;;;;;5025826;28;20053;-83
2024/01/20 09:35:04;;;;;;;35.22;12.75;;;;;;;;;;5060408;28;20116;-80
2024/01/20 09:37:30;;;;;;;40.80;13.50;;;;;;;;;;5040712;28;20041;-74
2024/01/20 09:39:57;;;;;;;35.08;12.18;;;;;;;;;;5038858;28;20120;-81
2024/01/20 09:42:23;;;;;;;36.27;12.43;;;;;;;;;;5057154;28;20543;-77
2024/01/20 09:44:53;;;;;;;33.33;10.05;;;;;;;;;;5041439;28;20303;-77
2024/01/20 09:47:19;;;;;;;39.50;13.15;;;;;;;;;;5063233;28;20055;-82
2024/01/20 09:49:45;;;;;;;32.67;12.18;;;;;;;;;;5069250;28;20041;-81
2024/01/20 09:52:21;;;;;;;36.03;12.45;;;;;;;;;;5045558;28;20056;-83
2024/01/20 09:54:55;;;;;;;35.00;12.60;;;;;;;;;;5054069;28;20370;-81
2024/01/20 09:57:22;;;;;;;36.03;12.70;;;;;;;;;;5053446;28;20049;-80
2024/01/20 09:59:49;;;;;;;40.40;12.48;;;;;;;;;;5052983;28;20080;-81
2024/01/20 10:02:16;;;;;;;37.67;13.13;;;;;;;;;;5053257;28;20053;-82
2024/01/20 10:04:47;;;;;;;36.53;12.27;;;;;;;;;;5052385;28;20048;-81
2024/01/20 10:07:27;;;;;;;30.00;10.85;;;;;;;;;;5036114;28;20116;-81
2024/01/20 10:09:53;;;;;;;35.42;13.90;;;;;;;;;;5052729;28;20098;-80
2024/01/20 10:12:19;;;;;;;34.58;11.38;;;;;;;;;;5018956;28;20086;-78
2024/01/20 10:14:45;;;;;;;33.58;11.82;;;;;;;;;;5053206;28;20386;-83
2024/01/20 10:17:11;;;;;;;35.80;12.05;;;;;;;;;;5053943;28;20049;-80
2024/01/20 10:19:38;;;;;;;31.00;11.18;;;;;;;;;;5053031;28;20044;-79
2024/01/20 10:22:08;;;;;;;35.75;11.23;;;;;;;;;;5053316;28;20041;-82
2024/01/20 10:24:34;;;;;;;35.78;11.65;;;;;;;;;;5052864;28;20044;-80
2024/01/20 10:27:02;;;;;;;34.75;12.23;;;;;;;;;;5052717;28;20409;-81
2024/01/20 10:29:29;;;;;;;32.85;12.35;;;;;;;;;;5055085;28;20119;-80
2024/01/20 10:31:55;;;;;;;33.67;12.18;;;;;;;;;;5036773;28;20056;-79
2024/01/20 10:34:24;;;;;;;36.25;11.80;;;;;;;;;;5056134;28;20037;-79
2024/01/20 10:36:52;;;;;;;35.45;11.73;;;;;;;;;;5037051;28;20053;-78
2024/01/20 10:39:20;;;;;;;39.08;13.32;;;;;;;;;;5054793;28;20055;-82
2024/01/20 10:41:48;;;;;;;33.97;11.15;;;;;;;;;;5054341;28;20057;-80
2024/01/20 10:44:16;;;;;;;32.50;10.93;;;;;;;;;;5053336;28;20461;-80
2024/01/20 10:46:46;;;;;;;36.78;12.00;;;;;;;;;;5053242;28;20049;-81
2024/01/20 10:49:16;;;;;;;34.25;11.60;;;;;;;;;;5036021;28;20060;-80
2024/01/20 10:51:42;;;;;;;31.77;11.40;;;;;;;;;;5052843;28;20139;-78
2024/01/20 10:54:08;;;;;;;34.67;11.82;;;;;;;;;;5035104;28;20045;-78
2024/01/20 10:56:36;;;;;;;31.23;11.13;;;;;;;;;;5052881;28;20048;-79
2024/01/20 10:59:02;;;;;;;;;;;;;;;;;;5052600;28;20284;-78
2024/01/20 11:01:29;;;;;;;31.55;10.07;;;;;;;;;;5053009;28;19928;-80
2024/01/20 11:03:55;;;;;;;30.33;10.80;;;;;;;;;;5052197;28;20045;-79
2024/01/20 11:06:22;;;;;;;27.05;8.90;;;;;;;;;;5052726;28;20048;-81
2024/01/20 11:08:50;;;;;;;29.80;10.48;;;;;;;;;;5052320;28;20045;-81
2024/01/20 11:11:16;;;;;;;23.52;8.18;;;;;;;;;;5034792;28;20443;-79
2024/01/20 11:13:45;;;;;;;30.95;10.95;;;;;;;;;;5034553;28;20073;-80
2024/01/20 11:16:18;;;;;;;27.58;10.95;;;;;;;;;;5034862;28;20044;-81
2024/01/20 11:18:45;;;;;;;33.25;11.27;;;;;;;;;;5052027;28;20080;-80
2024/01/20 11:21:19;;;;;;;33.15;11.90;;;;;;;;;;5019210;28;20400;-80
2024/01/20 11:24:01;;;;;;;29.63;12.30;;;;;;;;;;5051695;28;20052;-79
2024/01/20 11:26:37;;;;;;;31.52;11.75;;;;;;;;;;5052281;28;20435;-80
2024/01/20 11:29:04;;;;;;;26.90;10.20;;;;;;;;;;5051550;28;20056;-79
2024/01/20 11:31:30;;;;;;;;;;;;;;;;;;5034945;28;20052;-80
2024/01/20 11:34:01;;;;;;;28.40;10.85;;;;;;;;;;5017477;28;19924;-81
2024/01/20 11:36:30;;;;;;;30.15;10.65;;;;;;;;;;5054150;28;20084;-79
2024/01/20 11:38:57;;;;;;;33.47;11.70;;;;;;;;;;5037758;28;20049;-83
2024/01/20 11:41:24;;;;;;;30.02;11.38;;;;;;;;;;5055574;28;20049;-79
2024/01/20 11:43:50;;;;;;;30.73;11.52;;;;;;;;;;5037493;28;20040;-81
2024/01/20 11:46:17;;;;;;;30.88;10.75;;;;;;;;;;5038398;28;20389;-79
2024/01/20 11:48:43;;;;;;;29.35;11.68;;;;;;;;;;5056507;28;20048;-81
2024/01/20 11:51:12;;;;;;;28.75;11.20;;;;;;;;;;5037955;28;20049;-79
2024/01/20 11:53:38;;;;;;;32.83;10.93;;;;;;;;;;5055779;28;20045;-80
2024/01/20 11:56:05;;;;;;;34.92;12.45;;;;;;;;;;5055450;28;20061;-80
2024/01/20 11:58:31;;;;;;;31.65;11.73;;;;;;;;;;5021083;28;20057;-79
2024/01/20 12:00:58;;;;;;;29.05;10.32;;;;;;;;;;5056993;28;20379;-80
2024/01/20 12:03:25;;;;;;;29.10;10.25;;;;;;;;;;5039282;28;20099;-80
2024/01/20 12:05:51;;;;;;;33.40;11.20;;;;;;;;;;5056212;28;20048;-79
2024/01/20 12:08:18;;;;;;;32.05;11.02;;;;;;;;;;5056984;28;20076;-79
2024/01/20 12:10:45;;;;;;;29.88;10.85;;;;;;;;;;5022895;28;20056;-79
2024/01/20 12:13:12;;;;;;;26.58;10.95;;;;;;;;;;5057295;28;20084;-80
2024/01/20 12:15:42;;;;;;;30.42;11.45;;;;;;;;;;5046356;28;20507;-82
2024/01/20 12:18:08;;;;;;;31.80;11.55;;;;;;;;;;5065082;28;20056;-81
2024/01/20 12:20:36;;;;;;;26.67;10.70;;;;;;;;;;5048727;28;20203;-79
2024/01/20 12:23:03;;;;;;;28.27;10.00;;;;;;;;;;5060137;28;20098;-83
2024/01/20 12:25:32;;;;;;;32.17;11.52;;;;;;;;;;5058098;28;20048;-81
2024/01/20 12:28:04;;;;;;;33.25;11.20;;;;;;;;;;5058564;28;20099;-78
2024/01/20 12:30:30;;;;;;;32.55;12.07;;;;;;;;;;5042090;28;20161;-79
2024/01/20 12:32:57;;;;;;;31.20;10.20;;;;;;;;;;5060812;28;20084;-79
2024/01/20 12:35:23;;;;;;;26.85;10.50;;;;;;;;;;5048382;28;20045;-81
2024/01/20 12:37:49;;;;;;;31.73;11.93;;;;;;;;;;5071816;28;20044;-81
2024/01/20 12:40:16;;;;;;;27.88;10.35;;;;;;;;;;5069297;28;20052;-82
2024/01/20 12:42:42;;;;;;;29.13;11.50;;;;;;;;;;5066149;28;20044;-82
2024/01/20 12:45:10;;;;;;;24.33;8.30;;;;;;;;;;5029906;28;20045;-82
2024/01/20 12:47:36;;;;;;;31.83;11.73;;;;;;;;;;5060853;28;20049;-83
2024/01/20 12:50:02;;;;;;;24.75;9.85;;;;;;;;;;5058060;28;20132;-80
2024/01/20 12:52:28;;;;;;;28.17;10.68;;;;;;;;;;5055025;28;20053;-81
2024/01/20 12:54:55;;;;;;;28.42;11.48;;;;;;;;;;5036879;28;20053;-82
2024/01/20 12:57:21;;;;;;;30.92;10.82;;;;;;;;;;5037216;28;20056;-81
2024/01/20 12:59:48;;;;;;;28.00;10.70;;;;;;;;;;5054378;28;20094;-82
2024/01/20 13:02:14;;;;;;;33.22;11.40;;;;;;;;;;5054189;28;20412;-81
2024/01/20 13:04:42;;;;;;;29.33;12.48;;;;;;;;;;5037201;28;20098;-80
2024/01/20 13:07:08;;;;;;;;;;;;;;;;;;5021820;28;20060;-79
2024/01/20 13:09:35;;;;;;;30.77;12.00;;;;;;;;;;5056395;28;19921;-81
2024/01/20 13:12:01;;;;;;;29.83;11.80;;;;;;;;;;5057309;28;20053;-80
2024/01/20 13:14:27;;;;;;;26.55;9.00;;;;;;;;;;5057844;28;20063;-80
2024/01/20 13:16:53;;;;;;;30.45;10.98;;;;;;;;;;5056158;28;20136;-79
2024/01/20 13:19:19;;;;;;;29.35;11.13;;;;;;;;;;5037329;28;20056;-79
2024/01/20 13:21:46;;;;;;;29.35;11.75;;;;;;;;;;5054821;28;20044;-79
2024/01/20 13:24:12;;;;;;;28.65;9.88;;;;;;;;;;5019867;28;20123;-80
2024/01/20 13:26:38;;;;;;;24.63;9.63;;;;;;;;;;5054232;28;20048;-79
2024/01/20 13:29:04;;;;;;;27.02;9.75;;;;;;;;;;5053900;28;20049;-78
2024/01/20 13:31:34;;;;;;;28.85;10.50;;;;;;;;;;5054548;28;20064;-81
2024/01/20 13:34:00;;;;;;;27.92;12.00;;;;;;;;;;5036226;28;20048;-79
2024/01/20 13:36:29;;;;;;;24.60;9.10;;;;;;;;;;5037361;28;20053;-80
2024/01/20 13:38:55;;;;;;;28.73;10.80;;;;;;;;;;5019309;28;20056;-80
2024/01/20 13:41:21;;;;;;;28.13;12.15;;;;;;;;;;5019713;28;20088;-79
2024/01/20 13:43:47;;;;;;;30.38;8.98;;;;;;;;;;5053727;28;20049;-79
2024/01/20 13:46:13;;;;;;;25.90;10.10;;;;;;;;;;5035681;28;20131;-81
2024/01/20 13:48:39;;;;;;;25.40;10.00;;;;;;;;;;5053841;28;20106;-80
2024/01/20 13:51:05;;;;;;;23.15;9.32;;;;;;;;;;5052233;28;20088;-75
2024/01/20 13:53:32;;;;;;;27.20;9.95;;;;;;;;;;5053112;28;20041;-79
2024/01/20 13:55:58;;;;;;;26.23;10.10;;;;;;;;;;5053141;28;20099;-80
2024/01/20 13:58:24;;;;;;;25.83;9.10;;;;;;;;;;5032451;28;20056;-80
2024/01/20 14:00:51;;;;;;;25.58;9.95;;;;;;;;;;5052859;28;20452;-79
2024/01/20 14:03:17;;;;;;;22.88;9.02;;;;;;;;;;5052640;28;20053;-79
2024/01/20 14:05:43;;;;;;;26.33;9.82;;;;;;;;;;5049319;28;20056;-80
2024/01/20 14:08:09;;;;;;;28.85;9.70;;;;;;;;;;5016097;28;20048;-81
2024/01/20 14:10:36;;;;;;;28.70;10.07;;;;;;;;;;5033019;28;20108;-82
2024/01/20 14:13:04;;;;;;;27.50;8.77;;;;;;;;;;5015347;28;20072;-79
2024/01/20 14:15:30;;;;;;;27.75;9.13;;;;;;;;;;5016412;28;20089;-82